Skip to main content

NOAA/GLERL Met Station at Michigan City, IN

Previous 3 Hours (2 minute increments)
See also Previous 5 Days (top of hour)
Jump down to Data
Switch to [English][Metric]
Zoom: Click and drag, Pan: shift-click and drag, Unzoom: double-click, Unzoom All






See also 1-day windrose plot


NOAA/GLERL Met Station at Michigan City, IN

Previous 3 Hours (2 minute increments)
See also Previous 5 Days (top of hour only)
Jump up to Graphs
Switch to [English][Metric]
                  Wind  Wind  Wind   Air   Dew   Rel     Sta   PAR
                   Spd   Gst   Dir  Temp    Pt   Hum    Pres uE/m2/
YYYY-MM-DD   CDT   kts   kts   deg     F     F     %   in Hg   sec
2021-04-18 03:36   5.1   5.4   201  37.8  31.8  78.8   29.28     0
2021-04-18 03:34   4.9   5.2   199  37.6  31.3  77.7   29.28     0
2021-04-18 03:32   5.1   5.4   202  37.8  31.0  76.3   29.28     0
2021-04-18 03:30   5.1   5.4   200  38.1  31.2  75.8   29.28     0
2021-04-18 03:28   5.1   5.4   198  38.1  31.0  75.3   29.28     0
2021-04-18 03:26   4.9   5.1   195  38.3  31.3  75.6   29.28     0
2021-04-18 03:24   4.9   5.2   190  38.3  31.3  75.7   29.28     0
2021-04-18 03:22   4.7   5.1   192  38.3  31.2  75.4   29.28     0
2021-04-18 03:20   4.7   5.1   194  38.5  31.3  75.0   29.28     0
2021-04-18 03:18   4.9   5.1   197  38.3  31.2  75.3   29.27     0
2021-04-18 03:16   4.5   5.1   197  38.5  31.6  76.0   29.27     0
2021-04-18 03:14   4.3   4.7   194  38.5  32.1  77.5   29.27     0
2021-04-18 03:12   3.7   4.5   191  38.3  32.4  79.0   29.27     0
2021-04-18 03:10   3.1   4.3   177  38.7  32.7  79.0   29.27     0
2021-04-18 03:08   2.9   3.9   178  39.0  32.4  76.8   29.27     0
2021-04-18 03:06   3.1   3.7   184  39.0  32.0  75.6   29.27     0
2021-04-18 03:04   2.9   3.1   191  38.8  32.3  77.0   29.27     0
2021-04-18 03:02   2.9   3.5   195  38.8  33.2  79.9   29.27     0
2021-04-18 03:00   2.5   3.5   194  38.8  32.9  79.1   29.27     0
2021-04-18 02:58   2.3   3.3   191  38.8  32.6  78.1   29.27     0
2021-04-18 02:56   2.5   2.7   196  38.8  32.5  77.8   29.27     0
2021-04-18 02:54   2.5   2.9   194  38.8  32.6  78.0   29.27     0
2021-04-18 02:52   2.7   2.9   192  38.8  32.7  78.2   29.27     0
2021-04-18 02:50   2.7   3.1   188  38.8  32.9  78.9   29.27     0
2021-04-18 02:48   2.7   3.1   173  39.0  33.0  78.8   29.27     0
2021-04-18 02:46   2.5   3.3   168  39.4  33.0  77.7   29.27     0
2021-04-18 02:44   2.1   3.1   173  39.6  32.9  76.9   29.27     0
2021-04-18 02:42   2.3   2.7   182  39.4  32.7  76.7   29.27     0
2021-04-18 02:40   2.1   3.3   195  39.4  32.9  77.2   29.27     0
2021-04-18 02:38   2.9   3.5   201  39.2  32.6  77.0   29.27     0
2021-04-18 02:36   3.3   3.7   206  39.2  32.7  77.1   29.27     0
2021-04-18 02:34   3.3   3.9   207  39.0  32.4  76.9   29.27     0
2021-04-18 02:32   3.5   3.9   205  39.0  32.3  76.7   29.27     0
2021-04-18 02:30   3.1   4.1   204  38.8  32.2  76.8   29.27     0
2021-04-18 02:28   2.9   3.5   199  38.7  32.1  77.1   29.27     0
2021-04-18 02:26   2.9   3.7   196  38.5  32.0  77.3   29.27     0
2021-04-18 02:24   3.1   3.7   196  38.5  32.1  77.7   29.27     0
2021-04-18 02:22   3.5   4.5   194  38.3  31.9  77.4   29.27     0
2021-04-18 02:20   3.9   4.5   201  38.5  31.9  77.1   29.27     0
2021-04-18 02:18   4.3   5.1   202  38.5  32.1  77.6   29.27     0
2021-04-18 02:16   3.9   4.7   200  38.5  32.1  77.7   29.27     0
2021-04-18 02:14   3.9   4.5   198  38.5  31.9  76.8   29.27     0
2021-04-18 02:12   4.5   6.0   203  38.5  31.9  76.8   29.27     0
2021-04-18 02:10   4.9   6.0   200  38.5  31.8  76.5   29.27     0
2021-04-18 02:08   5.4   6.0   198  38.5  31.5  75.6   29.27     0
2021-04-18 02:06   5.6   6.4   205  38.5  31.5  75.8   29.27     0
2021-04-18 02:04   5.2   5.6   202  38.5  31.8  76.5   29.27     0
2021-04-18 02:02   5.1   5.8   199  39.0  32.5  77.2   29.27     0
2021-04-18 02:00   5.1   5.6   197  39.2  32.9  77.8   29.27     0
2021-04-18 01:58   4.7   5.4   204  39.4  33.1  78.0   29.27     0
2021-04-18 01:56   4.3   5.1   208  39.0  33.0  78.7   29.27     0
2021-04-18 01:54   4.1   4.7   205  38.8  32.9  79.1   29.27     0
2021-04-18 01:52   3.7   4.3   199  38.7  32.8  79.1   29.27     0
2021-04-18 01:50   4.1   4.5   192  38.5  32.4  78.5   29.27     0
2021-04-18 01:48   4.5   4.9   190  38.3  32.2  78.5   29.27     0
2021-04-18 01:46   3.9   5.1   188  38.3  32.2  78.4   29.27     0
2021-04-18 01:44   4.1   4.9   190  38.5  32.5  78.8   29.27     0
2021-04-18 01:42   4.1   4.9   190  38.5  32.6  79.2   29.27     0
2021-04-18 01:40   4.1   4.9   186  38.7  33.1  80.2   29.27     0
2021-04-18 01:38   3.5   4.3   188  38.7  33.6  81.7   29.27     0
2021-04-18 01:36   3.3   3.9   187  38.3  33.5  82.6   29.27     0
2021-04-18 01:34   2.9   3.7   187  38.3  33.2  81.7   29.27     0
2021-04-18 01:32   3.1   3.7   182  38.7  33.2  80.6   29.27     0
2021-04-18 01:30   2.9   3.3   184  39.2  33.4  79.6   29.27     0
2021-04-18 01:28   3.3   4.1   190  39.2  33.1  78.6   29.28     0
2021-04-18 01:26   3.5   4.1   191  39.0  33.0  78.7   29.28     0
2021-04-18 01:24   3.7   4.7   195  39.0  33.1  79.1   29.28     0
2021-04-18 01:22   4.1   5.2   193  38.8  33.1  79.7   29.28     0
2021-04-18 01:20   4.1   4.7   194  38.5  33.1  80.7   29.29     0
2021-04-18 01:18   4.1   4.7   198  38.3  33.2  81.5   29.29     0
2021-04-18 01:16   4.5   4.9   201  38.3  33.2  81.6   29.28     0
2021-04-18 01:14   4.1   4.5   199  38.3  33.2  81.8   29.28     0
2021-04-18 01:12   4.1   4.5   196  38.1  33.5  83.1   29.28     0
2021-04-18 01:10   3.3   4.1   188  38.3  33.6  83.1   29.29     0
2021-04-18 01:08   3.1   3.9   184  38.7  33.8  82.5   29.29     0
2021-04-18 01:06   3.3   4.1   182  38.8  33.7  81.6   29.29     0
2021-04-18 01:04   3.5   4.3   185  38.8  33.7  81.4   29.29     0
2021-04-18 01:02   3.5   4.1   193  38.8  33.7  81.7   29.29     0
2021-04-18 01:00   2.9   3.5   198  38.8  34.0  82.6   29.29     0
2021-04-18 00:58   2.9   3.7   204  38.7  34.0  83.1   29.29     0
2021-04-18 00:56   2.9   3.5   199  38.8  34.2  83.2   29.29     0
2021-04-18 00:54   2.7   3.1   200  38.7  34.1  83.5   29.29     0
2021-04-18 00:52   2.1   3.1   190  38.8  34.2  83.1   29.29     0
2021-04-18 00:50   1.7   2.9   192  39.2  34.4  82.6   29.29     0
2021-04-18 00:48   2.9   4.1   188  39.2  34.4  82.6   29.29     0
2021-04-18 00:46   2.7   3.7   184  39.2  34.2  81.9   29.29     0
2021-04-18 00:44   2.9   3.9   174  39.6  34.1  80.6   29.29     0
2021-04-18 00:42   3.5   5.1   177  40.5  34.5  79.1   29.28     0
2021-04-18 00:40   4.1   4.9   195  41.4  34.9  77.7   29.28     0
2021-04-18 00:38   4.7   5.2   205  41.5  34.9  77.1   29.28     0
2021-04-18 00:36   3.9   4.7   207  41.5  35.0  77.4   29.28     0